LFAT/LTQ METAR and TAF weather

Enter ICAO airport designator
Station Type Date Time Source
LFAT METAR 2022/07/03 14:00 UTC NOAA

LFAT 031400Z AUTO 25011KT 220V290 CAVOK 19/13 Q1021 NOSIG


Station Type Date Time Source
LFAT Decoded METAR 2022/07/03 14:00 UTC NOAA

Le Touquet, France (LFAT) 50-31N 001-37E 14M
Jul 03, 2022 - 10:00 AM EDT / 2022.07.03 1400 UTC
Wind: from the WSW (250 degrees) at 13 MPH (11 KT) (direction variable):0
Visibility: greater than 7 mile(s):0
Temperature: 66 F (19 C)
Dew Point: 55 F (13 C)
Relative Humidity: 68%
Pressure (altimeter): 30.15 in. Hg (1021 hPa)
ob: LFAT 031400Z AUTO 25011KT 220V290 CAVOK 19/13 Q1021 NOSIG
cycle: 14

Station Type Date Time Source
LFAT TAF 2018/07/14 09:21 UTC NOAA

TAF TAF LFAT 140800Z 1409/1421 09004KT 8000 NSC
BECMG 1409/1411 30010KT

Example: see airport list